New Baden, Texas
Current Conditions -  °F | °C
As of 3:15 PM on Wednesday 26 Nov 2014 (Local Time) from KLHB Reporting Station
Clear Clear  
Wind Chill: 71°   Ceiling: Unl
Heat Index: 71°   Visibility: 10mi
Dew Point: 35°   Wind: 7mph
Humidity: 28%   Direction: 290°WNW
Pressure: 30.17"   Gusts: NA
Location:  31.05°N, 96.43°W
Report Text: KLHB 262115Z AUTO 29006KT 10SM CLR 21/02 A3017 RMK AO2 T02140019
Loading
Personal Weather Stations






























Interactive Weather Map New forecast layout! Learn more

10-Day Weather Forecast

Advertisements
Track Severe Weather on mobile